logo
Search for airport 
image banner adimage banner adimage banner ad
image banner ad

FAZEBU - Zebula

Located in , South Africa

ICAO - , IATA -

Data provided by Airmate  

General information

Coordinates: S24°45'22" E27°58'12"
Elevation is 4212 feet MSL.
 
View others Airports in (unassigned)

Operational data

Special qualification required
Current time UTC:
Current local time:
Weather at : - ( 0 km )
METAR: MMMX 170443Z 33010KT 10SM BKN220 23/07 A3031 NOSIG RMK 8/008 HZY
View NOTAMs / SUP AIP / TFR affecting this airport [VIEW]
Communications frequencies: [VIEW]

Runways:

RWY identifierQFULength (ft)Width (ft)SurfaceLDA (ft)
0860°426533ASPH
26240°426533ASPH

Airport contact information

Address: South Africa

Satellite view of FAZEBU